PWSweather.com
Personal Weather Stations
Station Observations
JOE4SPEED
Jupiter, Fl, Jupiter, FL 33458

Jupiter, FlJupiter, FL 33458

Lat: 26.9373, Lon: -80.1101

Elevation: 12

Station Type: Davis VP 2

http://www.joe4speed.com/wxindex.php

Latest ConditionsUpdated 12:00:14 PM EDT Saturday, Aug 1, 2015
Currently Today's Max Today's Min Today's Average
Temperature 85.4°F29.7°C 85.4°F29.7°C 72.0°F22.2°C 75.1°F23.9°C
Dew Point 78.2°F25.7°C 78.3°F25.7°C 69.9°F21.1°C 72.3°F22.4°C
Winds 3.5 mph S5.6 kmh S 5.3 mph WNW8.5 kmh WNW - 1.3 mph 2.1 kmh
Wind Gusts 9.0 mph14.5 kmh 11.0 mph17.7 kmh - -
Humidity 79% 94% 77% 91%
Pressure 30.01 in1016.3 mb 30.03 in1016.9 mb 29.97 in1014.9 mb -
Precipitation - 0.01 in0.3 mm - -
Hour Temp Dew Point Humidity Winds Wind Gusts Pressure Precip Precip Rate Daily Precip Total
12:00 PM 85.4°F29.7°C 78.2°F25.7°C 79% 3.5 mph S5.6 kmh S 9.0 mph14.5 kmh 30.01 in1016.3 mb - 0.00 in0.0 mm 0.01 in0.3 mm
11:50 AM 85.2°F29.6°C 77.2°F25.1°C 77% 4.8 mph SSE7.7 kmh SSE 7.0 mph11.3 kmh 30.01 in1016.3 mb - 0.00 in0.0 mm 0.01 in0.3 mm
11:40 AM 85.1°F29.5°C 78.3°F25.7°C 80% 3.2 mph SE5.1 kmh SE 4.0 mph6.4 kmh 30.01 in1016.3 mb - 0.00 in0.0 mm 0.01 in0.3 mm
11:30 AM 85.0°F29.4°C 77.8°F25.4°C 79% 3.6 mph SSW5.8 kmh SSW 5.0 mph8.0 kmh 30.01 in1016.3 mb - 0.00 in0.0 mm 0.01 in0.3 mm
11:20 AM 84.7°F29.3°C 78.2°F25.7°C 81% 4.6 mph E7.4 kmh E 6.0 mph9.7 kmh 30.01 in1016.3 mb - 0.00 in0.0 mm 0.01 in0.3 mm
11:10 AM 84.2°F29.0°C 78.1°F25.6°C 82% 2.6 mph E4.2 kmh E 3.0 mph4.8 kmh 30.01 in1016.3 mb - 0.00 in0.0 mm 0.01 in0.3 mm
11:00 AM 83.5°F28.6°C 77.5°F25.3°C 82% 5.0 mph SE8.0 kmh SE 6.0 mph9.7 kmh 30.00 in1015.9 mb - 0.00 in0.0 mm 0.01 in0.3 mm
10:50 AM 82.7°F28.2°C 77.0°F25.0°C 83% 3.0 mph SE4.8 kmh SE 7.0 mph11.3 kmh 30.00 in1015.9 mb - 0.00 in0.0 mm 0.01 in0.3 mm
10:40 AM 81.9°F27.7°C 77.0°F25.0°C 85% 2.8 mph SE4.5 kmh SE 7.0 mph11.3 kmh 30.00 in1015.9 mb - 0.00 in0.0 mm 0.01 in0.3 mm
10:30 AM 80.4°F26.9°C 75.9°F24.4°C 86% 3.4 mph S5.5 kmh S 7.0 mph11.3 kmh 30.00 in1015.9 mb - 0.00 in0.0 mm 0.01 in0.3 mm
10:20 AM 79.5°F26.4°C 75.7°F24.3°C 88% 0.5 mph SSE0.8 kmh SSE 2.0 mph3.2 kmh 30.00 in1015.9 mb - 0.00 in0.0 mm 0.01 in0.3 mm
10:10 AM 78.7°F25.9°C 74.8°F23.8°C 88% 0.4 mph SSW0.6 kmh SSW 1.0 mph1.6 kmh 30.00 in1015.9 mb - 0.00 in0.0 mm 0.01 in0.3 mm
10:00 AM 78.2°F25.7°C 74.7°F23.7°C 89% 0.3 mph SSW0.5 kmh SSW 1.0 mph1.6 kmh 30.00 in1015.9 mb - 0.00 in0.0 mm 0.01 in0.3 mm
09:50 AM 77.9°F25.5°C 74.7°F23.7°C 90% 0.2 mph SE0.3 kmh SE 1.0 mph1.6 kmh 30.00 in1015.9 mb - 0.00 in0.0 mm 0.01 in0.3 mm
09:40 AM 77.4°F25.2°C 74.2°F23.4°C 90% Calm Calm -- 29.99 in1015.6 mb - 0.00 in0.0 mm 0.01 in0.3 mm
09:30 AM 76.7°F24.8°C 73.9°F23.3°C 91% Calm Calm 1.0 mph1.6 kmh 29.99 in1015.6 mb - 0.00 in0.0 mm 0.01 in0.3 mm
09:20 AM 76.3°F24.6°C 73.4°F23.0°C 91% 0.9 mph SE1.4 kmh SE 1.0 mph1.6 kmh 29.99 in1015.6 mb - 0.01 in0.3 mm 0.01 in0.3 mm
09:10 AM 75.8°F24.3°C 73.0°F22.8°C 91% 1.0 mph SE1.6 kmh SE 2.0 mph3.2 kmh 29.99 in1015.6 mb - 0.00 in0.0 mm 0.00 in0.0 mm
09:00 AM 75.4°F24.1°C 72.6°F22.6°C 91% 0.9 mph SSE1.4 kmh SSE 2.0 mph3.2 kmh 30.00 in1015.9 mb - 0.00 in0.0 mm 0.00 in0.0 mm
08:50 AM 75.0°F23.9°C 72.2°F22.3°C 91% 1.6 mph SSE2.6 kmh SSE 2.0 mph3.2 kmh 29.99 in1015.6 mb - 0.00 in0.0 mm 0.00 in0.0 mm
08:40 AM 74.6°F23.7°C 71.8°F22.1°C 91% 2.4 mph SE3.9 kmh SE 4.0 mph6.4 kmh 29.98 in1015.2 mb - 0.00 in0.0 mm 0.00 in0.0 mm
08:30 AM 74.1°F23.4°C 71.6°F22.0°C 92% 3.2 mph ESE5.1 kmh ESE 5.0 mph8.0 kmh 29.98 in1015.2 mb - 0.00 in0.0 mm 0.00 in0.0 mm
08:20 AM 73.8°F23.2°C 71.3°F21.8°C 92% 3.0 mph SE4.8 kmh SE 6.0 mph9.7 kmh 29.98 in1015.2 mb - 0.00 in0.0 mm 0.00 in0.0 mm
08:10 AM 73.5°F23.1°C 71.0°F21.7°C 92% 3.1 mph SE5.0 kmh SE 4.0 mph6.4 kmh 29.97 in1014.9 mb - 0.00 in0.0 mm 0.00 in0.0 mm
08:00 AM 73.5°F23.1°C 71.0°F21.7°C 92% 3.0 mph E4.8 kmh E 4.0 mph6.4 kmh 29.97 in1014.9 mb - 0.00 in0.0 mm 0.00 in0.0 mm
07:50 AM 73.5°F23.1°C 71.0°F21.7°C 92% 1.6 mph SE2.6 kmh SE 3.0 mph4.8 kmh 29.97 in1014.9 mb - 0.00 in0.0 mm 0.00 in0.0 mm
07:40 AM 73.4°F23.0°C 70.9°F21.6°C 92% 2.2 mph SE3.5 kmh SE 3.0 mph4.8 kmh 29.98 in1015.2 mb - 0.00 in0.0 mm 0.00 in0.0 mm
07:30 AM 73.2°F22.9°C 70.7°F21.5°C 92% 1.9 mph SE3.1 kmh SE 4.0 mph6.4 kmh 29.98 in1015.2 mb - 0.00 in0.0 mm 0.00 in0.0 mm
07:20 AM 73.0°F22.8°C 70.5°F21.4°C 92% Calm Calm -- 29.98 in1015.2 mb - 0.00 in0.0 mm 0.00 in0.0 mm
07:10 AM 72.8°F22.7°C 70.3°F21.3°C 92% Calm Calm -- 29.98 in1015.2 mb - 0.00 in0.0 mm 0.00 in0.0 mm
07:00 AM 72.8°F22.7°C 70.3°F21.3°C 92% Calm Calm -- 29.98 in1015.2 mb - 0.00 in0.0 mm 0.00 in0.0 mm
06:50 AM 72.7°F22.6°C 70.2°F21.2°C 92% 1.8 mph W2.9 kmh W 4.0 mph6.4 kmh 29.98 in1015.2 mb - 0.00 in0.0 mm 0.00 in0.0 mm
06:40 AM 72.7°F22.6°C 70.2°F21.2°C 92% 0.4 mph WNW0.6 kmh WNW 1.0 mph1.6 kmh 29.99 in1015.6 mb - 0.00 in0.0 mm 0.00 in0.0 mm
06:30 AM 72.7°F22.6°C 70.2°F21.2°C 92% 1.2 mph WNW1.9 kmh WNW 2.0 mph3.2 kmh 29.99 in1015.6 mb - 0.00 in0.0 mm 0.00 in0.0 mm
06:20 AM 72.7°F22.6°C 70.2°F21.2°C 92% 1.1 mph W1.8 kmh W 4.0 mph6.4 kmh 30.00 in1015.9 mb - 0.00 in0.0 mm 0.00 in0.0 mm
06:10 AM 72.7°F22.6°C 70.2°F21.2°C 92% 1.2 mph NW1.9 kmh NW 2.0 mph3.2 kmh 30.00 in1015.9 mb - 0.00 in0.0 mm 0.00 in0.0 mm
06:00 AM 72.7°F22.6°C 70.2°F21.2°C 92% 5.3 mph WNW8.5 kmh WNW 6.0 mph9.7 kmh 30.01 in1016.3 mb - 0.00 in0.0 mm 0.00 in0.0 mm
05:50 AM 72.6°F22.6°C 70.5°F21.4°C 93% 4.4 mph W7.1 kmh W 11.0 mph17.7 kmh 30.02 in1016.6 mb - 0.00 in0.0 mm 0.00 in0.0 mm
05:30 AM 72.1°F22.3°C 70.0°F21.1°C 93% 1.6 mph SW2.6 kmh SW 3.0 mph4.8 kmh 30.01 in1016.3 mb - 0.00 in0.0 mm 0.00 in0.0 mm
05:20 AM 72.0°F22.2°C 69.9°F21.1°C 93% 2.6 mph W4.2 kmh W 4.0 mph6.4 kmh 30.02 in1016.6 mb - 0.00 in0.0 mm 0.00 in0.0 mm
05:10 AM 72.1°F22.3°C 70.3°F21.3°C 94% Calm Calm -- 30.00 in1015.9 mb - 0.00 in0.0 mm 0.00 in0.0 mm
05:00 AM 72.1°F22.3°C 70.3°F21.3°C 94% Calm Calm -- 30.00 in1015.9 mb - 0.00 in0.0 mm 0.00 in0.0 mm
04:50 AM 72.3°F22.4°C 70.5°F21.4°C 94% Calm Calm -- 30.00 in1015.9 mb - 0.00 in0.0 mm 0.00 in0.0 mm
04:40 AM 72.4°F22.4°C 70.6°F21.4°C 94% Calm Calm -- 29.99 in1015.6 mb - 0.00 in0.0 mm 0.00 in0.0 mm
04:30 AM 72.5°F22.5°C 70.7°F21.5°C 94% Calm Calm -- 29.99 in1015.6 mb - 0.00 in0.0 mm 0.00 in0.0 mm
04:20 AM 72.5°F22.5°C 70.7°F21.5°C 94% Calm Calm -- 30.00 in1015.9 mb - 0.00 in0.0 mm 0.00 in0.0 mm
04:10 AM 72.5°F22.5°C 70.7°F21.5°C 94% Calm Calm -- 30.00 in1015.9 mb - 0.00 in0.0 mm 0.00 in0.0 mm
04:00 AM 72.6°F22.6°C 70.8°F21.6°C 94% Calm Calm -- 30.00 in1015.9 mb - 0.00 in0.0 mm 0.00 in0.0 mm
03:50 AM 72.7°F22.6°C 70.9°F21.6°C 94% Calm Calm -- 30.00 in1015.9 mb - 0.00 in0.0 mm 0.00 in0.0 mm
03:40 AM 72.8°F22.7°C 71.0°F21.7°C 94% Calm Calm -- 30.00 in1015.9 mb - 0.00 in0.0 mm 0.00 in0.0 mm
03:30 AM 72.8°F22.7°C 71.0°F21.7°C 94% Calm Calm -- 30.00 in1015.9 mb - 0.00 in0.0 mm 0.00 in0.0 mm
03:20 AM 72.9°F22.7°C 71.1°F21.7°C 94% Calm Calm -- 30.00 in1015.9 mb - 0.00 in0.0 mm 0.00 in0.0 mm
03:10 AM 73.0°F22.8°C 71.2°F21.8°C 94% Calm Calm -- 30.00 in1015.9 mb - 0.00 in0.0 mm 0.00 in0.0 mm
03:00 AM 73.1°F22.8°C 71.3°F21.8°C 94% Calm Calm -- 30.01 in1016.3 mb - 0.00 in0.0 mm 0.00 in0.0 mm
02:50 AM 73.2°F22.9°C 71.4°F21.9°C 94% Calm Calm -- 30.00 in1015.9 mb - 0.00 in0.0 mm 0.00 in0.0 mm
02:40 AM 73.1°F22.8°C 71.3°F21.8°C 94% Calm Calm -- 30.01 in1016.3 mb - 0.00 in0.0 mm 0.00 in0.0 mm
02:30 AM 73.1°F22.8°C 71.3°F21.8°C 94% Calm Calm -- 30.00 in1015.9 mb - 0.00 in0.0 mm 0.00 in0.0 mm
02:20 AM 73.1°F22.8°C 71.3°F21.8°C 94% Calm Calm -- 30.01 in1016.3 mb - 0.00 in0.0 mm 0.00 in0.0 mm
02:10 AM 73.2°F22.9°C 71.4°F21.9°C 94% Calm Calm -- 30.01 in1016.3 mb - 0.00 in0.0 mm 0.00 in0.0 mm
02:00 AM 73.1°F22.8°C 71.3°F21.8°C 94% Calm Calm -- 30.02 in1016.6 mb - 0.00 in0.0 mm 0.00 in0.0 mm
01:50 AM 73.1°F22.8°C 71.3°F21.8°C 94% Calm Calm -- 30.02 in1016.6 mb - 0.00 in0.0 mm 0.00 in0.0 mm
01:40 AM 73.2°F22.9°C 71.4°F21.9°C 94% Calm Calm -- 30.02 in1016.6 mb - 0.00 in0.0 mm 0.00 in0.0 mm
01:30 AM 73.3°F22.9°C 71.5°F21.9°C 94% Calm Calm -- 30.03 in1016.9 mb - 0.00 in0.0 mm 0.00 in0.0 mm
01:20 AM 73.3°F22.9°C 71.4°F21.9°C 94% 2.4 mph SW3.9 kmh SW 3.0 mph4.8 kmh 30.02 in1016.6 mb - 0.00 in0.0 mm 0.00 in0.0 mm
01:10 AM 73.3°F22.9°C 71.5°F21.9°C 94% 2.5 mph SW4.0 kmh SW 4.0 mph6.4 kmh 30.02 in1016.6 mb - 0.00 in0.0 mm 0.00 in0.0 mm
01:00 AM 73.3°F22.9°C 71.5°F21.9°C 94% 1.3 mph SSE2.1 kmh SSE 2.0 mph3.2 kmh 30.02 in1016.6 mb - 0.00 in0.0 mm 0.00 in0.0 mm
12:50 AM 73.4°F23.0°C 71.2°F21.8°C 93% 2.0 mph SE3.2 kmh SE 3.0 mph4.8 kmh 30.03 in1016.9 mb - 0.00 in0.0 mm 0.00 in0.0 mm
12:40 AM 73.4°F23.0°C 71.3°F21.8°C 93% 2.0 mph S3.2 kmh S 2.0 mph3.2 kmh 30.02 in1016.6 mb - 0.00 in0.0 mm 0.00 in0.0 mm
12:30 AM 73.6°F23.1°C 71.8°F22.1°C 94% 1.0 mph S1.6 kmh S 2.0 mph3.2 kmh 30.03 in1016.9 mb - 0.00 in0.0 mm 0.00 in0.0 mm
12:20 AM 73.8°F23.2°C 72.0°F22.2°C 94% 0.7 mph S1.1 kmh S 1.0 mph1.6 kmh 30.03 in1016.9 mb - 0.00 in0.0 mm 0.00 in0.0 mm
12:10 AM 73.9°F23.3°C 72.1°F22.3°C 94% 1.8 mph S2.9 kmh S 3.0 mph4.8 kmh 30.02 in1016.6 mb - 0.00 in0.0 mm 0.00 in0.0 mm
12:00 AM 73.8°F23.2°C 72.0°F22.2°C 94% 0.9 mph S1.4 kmh S 1.0 mph1.6 kmh 30.02 in1016.6 mb - 0.00 in0.0 mm 0.00 in0.0 mm